Ferrara Airport LIPF

Flugplatz Daten

Name: Ferrara Airport

Ident: LIPF

Lat: 44,81600189

Long: 11,61340046

Platzhöhe: 20 ft

IataCode:

City: Ferrara

Metar

2021/12/03 17:55
LIPF 031755Z 00000KT CAVOK 05/03 Q1014

Taf

Gewünschte Webcam nicht vorhanden? Dann fügen Sie eine hinzu. Sie wird dann so schnell wie möglich freigeschaltet
Url: Title: